Time;durP1;ratioP1;P1;durP2;ratioP2;P2;SDS_P1;SDS_P2;PMS_P1;PMS_P2;Temp;Humidity;BMP_temperature;BMP_pressure;BME280_temperature;BME280_humidity;BME280_pressure;Samples;Min_cycle;Max_cycle;Signal;HPM_P1;HPM_P2
2022/05/30 00:00:17;;;;;;;4.53;3.42;;;10.80;99.90;;;;;;5071442;28;20374;-83
2022/05/30 00:02:43;;;;;;;4.43;3.42;;;10.80;99.90;;;;;;5071770;28;20377;-84
2022/05/30 00:05:11;;;;;;;3.97;3.40;;;10.80;99.90;;;;;;5070295;28;20876;-84
2022/05/30 00:07:37;;;;;;;5.43;3.95;;;10.80;99.90;;;;;;5072015;28;20396;-84
2022/05/30 00:10:05;;;;;;;5.00;3.50;;;10.70;99.90;;;;;;5071579;28;20413;-84
2022/05/30 00:12:31;;;;;;;3.92;3.53;;;10.80;99.90;;;;;;5070999;28;20390;-84
2022/05/30 00:14:56;;;;;;;4.05;3.45;;;10.80;99.90;;;;;;5070432;28;20473;-83
2022/05/30 00:17:22;;;;;;;4.65;3.40;;;10.80;99.90;;;;;;5071140;28;20435;-84
2022/05/30 00:19:48;;;;;;;4.20;3.80;;;10.80;99.90;;;;;;5070076;28;20906;-83
2022/05/30 00:22:14;;;;;;;4.00;3.60;;;10.80;99.90;;;;;;5071439;28;20404;-83
2022/05/30 00:24:43;;;;;;;4.20;3.40;;;10.80;99.90;;;;;;5069903;28;20387;-84
2022/05/30 00:27:08;;;;;;;3.58;3.28;;;10.80;99.90;;;;;;5069132;28;20421;-83
2022/05/30 00:29:34;;;;;;;4.35;3.80;;;10.70;99.90;;;;;;5071437;28;20441;-82
2022/05/30 00:32:00;;;;;;;4.10;3.70;;;10.70;99.90;;;;;;5070905;28;20375;-83
2022/05/30 00:34:27;;;;;;;4.45;3.83;;;10.70;99.90;;;;;;5069715;28;20374;-83
2022/05/30 00:36:53;;;;;;;3.60;3.28;;;10.70;99.90;;;;;;5071128;28;20737;-83
2022/05/30 00:39:18;;;;;;;5.15;3.90;;;10.70;99.90;;;;;;5070961;28;20371;-83
2022/05/30 00:41:45;;;;;;;4.57;4.03;;;10.70;99.90;;;;;;5069358;28;20405;-83
2022/05/30 00:44:12;;;;;;;5.72;4.05;;;10.70;99.90;;;;;;5069247;28;20401;-83
2022/05/30 00:46:37;;;;;;;4.05;3.75;;;10.80;99.90;;;;;;5071215;28;20367;-83
2022/05/30 00:49:06;;;;;;;5.10;4.05;;;10.80;99.90;;;;;;5103347;28;20494;-82
2022/05/30 00:51:44;;;;;;;5.75;4.20;;;10.80;99.90;;;;;;5069132;28;20729;-83
2022/05/30 00:54:13;;;;;;;5.20;4.40;;;10.90;99.90;;;;;;5068908;28;20394;-83
2022/05/30 00:56:45;;;;;;;5.05;4.40;;;10.90;99.90;;;;;;5069267;28;20378;-82
2022/05/30 00:59:12;;;;;;;5.50;4.43;;;10.90;99.90;;;;;;5069823;28;20905;-82
2022/05/30 01:01:38;;;;;;;4.55;4.00;;;10.90;99.90;;;;;;5070237;28;20406;-82
2022/05/30 01:06:56;;;;;;;4.38;3.80;;;11.00;99.90;;;;;;5070449;28;20393;-84
2022/05/30 01:09:36;;;;;;;4.88;4.38;;;11.00;99.90;;;;;;5069009;28;20732;-83
2022/05/30 01:12:03;;;;;;;6.07;4.30;;;11.10;99.90;;;;;;5066523;28;20378;-83
2022/05/30 01:14:35;;;;;;;6.22;4.78;;;11.00;99.90;;;;;;5068913;28;20756;-83
2022/05/30 01:17:02;;;;;;;5.70;4.57;;;11.00;99.90;;;;;;5069464;28;20397;-83
2022/05/30 01:20:02;;;;;;;5.68;4.45;;;11.00;99.90;;;;;;5069322;28;20938;-83
2022/05/30 01:22:54;;;;;;;5.30;4.57;;;11.00;99.90;;;;;;5070117;28;20394;-83
2022/05/30 01:25:57;;;;;;;5.00;4.60;;;11.10;99.90;;;;;;5068770;28;20733;-83
2022/05/30 01:28:42;;;;;;;5.00;4.38;;;11.10;99.90;;;;;;5068227;28;20422;-82
2022/05/30 01:31:09;;;;;;;4.68;4.18;;;11.10;99.90;;;;;;5069892;28;20370;-83
2022/05/30 01:33:35;;;;;;;5.82;4.85;;;11.10;99.90;;;;;;5069787;28;20904;-83
2022/05/30 01:36:00;;;;;;;5.85;4.75;;;11.00;99.90;;;;;;5068529;28;20387;-82
2022/05/30 01:38:27;;;;;;;5.35;4.28;;;11.00;99.90;;;;;;5069644;28;20370;-82
2022/05/30 01:40:55;;;;;;;5.85;4.85;;;11.00;99.90;;;;;;5067744;28;20512;-83
2022/05/30 01:43:21;;;;;;;5.68;4.20;;;11.00;99.90;;;;;;5068449;28;20480;-83
2022/05/30 01:45:47;;;;;;;5.47;4.50;;;11.00;99.90;;;;;;5067840;28;20387;-83
2022/05/30 01:48:13;;;;;;;6.43;4.53;;;11.10;99.90;;;;;;5068151;28;20377;-83
2022/05/30 01:50:39;;;;;;;6.97;5.07;;;11.10;99.90;;;;;;5069716;28;20381;-82
2022/05/30 01:53:04;;;;;;;7.20;5.13;;;11.10;99.90;;;;;;5069555;28;20440;-83
2022/05/30 01:55:30;;;;;;;6.37;5.40;;;11.00;99.90;;;;;;5068410;28;20783;-83
2022/05/30 01:57:56;;;;;;;5.68;5.10;;;11.00;99.90;;;;;;5102728;28;20382;-83
2022/05/30 02:00:21;;;;;;;7.03;5.90;;;11.10;99.90;;;;;;5069562;28;20381;-82
2022/05/30 02:02:47;;;;;;;9.23;5.80;;;11.00;99.90;;;;;;5070753;28;20449;-83
2022/05/30 02:05:13;;;;;;;6.63;5.93;;;11.00;99.90;;;;;;5071161;28;20370;-83
2022/05/30 02:07:38;;;;;;;6.70;5.80;;;11.00;99.90;;;;;;5069900;28;20401;-83
2022/05/30 02:10:06;;;;;;;6.00;5.40;;;10.90;99.90;;;;;;5068052;28;20382;-83
2022/05/30 02:12:31;;;;;;;7.43;5.60;;;11.00;99.90;;;;;;5069609;28;20479;-83
2022/05/30 02:14:57;;;;;;;6.70;5.80;;;10.90;99.90;;;;;;5069209;28;20815;-83
2022/05/30 02:17:22;;;;;;;6.03;5.43;;;10.90;99.90;;;;;;5101644;28;20375;-83
2022/05/30 02:19:48;;;;;;;7.73;5.57;;;11.00;99.90;;;;;;5069263;28;20720;-84
2022/05/30 02:22:17;;;;;;;9.18;5.90;;;11.00;99.90;;;;;;5067444;28;20432;-82
2022/05/30 02:24:43;;;;;;;7.20;5.72;;;10.90;99.90;;;;;;5069362;28;20378;-84
2022/05/30 02:27:11;;;;;;;7.28;5.88;;;11.00;99.90;;;;;;5068205;28;20382;-82
2022/05/30 02:29:38;;;;;;;6.07;5.47;;;10.90;99.90;;;;;;5068769;28;20426;-82
2022/05/30 02:32:04;;;;;;;7.60;5.88;;;11.00;99.90;;;;;;5067357;28;20386;-84
2022/05/30 02:37:15;;;;;;;9.45;6.55;;;10.90;99.90;;;;;;5069302;28;20436;-82
2022/05/30 02:39:40;;;;;;;8.65;6.55;;;10.90;99.90;;;;;;5068907;28;20495;-83
2022/05/30 02:42:07;;;;;;;8.93;6.13;;;10.90;99.90;;;;;;5101200;28;20910;-83
2022/05/30 02:44:34;;;;;;;9.77;6.63;;;10.90;99.90;;;;;;5068815;28;20402;-84
2022/05/30 02:47:00;;;;;;;9.32;6.88;;;10.90;99.90;;;;;;5067594;28;20382;-81
2022/05/30 02:49:27;;;;;;;9.27;6.05;;;10.90;99.90;;;;;;5068810;28;20363;-83
2022/05/30 02:51:54;;;;;;;11.25;6.60;;;10.90;99.90;;;;;;5068439;28;20449;-82
2022/05/30 02:54:20;;;;;;;10.77;7.75;;;10.90;99.90;;;;;;5069562;28;20384;-83
2022/05/30 02:56:50;;;;;;;9.82;7.22;;;10.90;99.90;;;;;;5069248;28;20461;-82
2022/05/30 02:59:16;;;;;;;11.00;6.90;;;10.90;99.90;;;;;;5066758;28;20546;-83
2022/05/30 03:01:42;;;;;;;14.03;7.40;;;10.80;99.90;;;;;;5068580;28;20415;-83
2022/05/30 03:04:08;;;;;;;10.57;7.33;;;10.90;99.90;;;;;;5067566;28;20397;-81
2022/05/30 03:06:34;;;;;;;12.73;7.47;;;10.80;99.90;;;;;;5067745;28;20386;-82
2022/05/30 03:09:00;;;;;;;9.75;6.88;;;10.80;99.90;;;;;;5101398;28;20366;-83
2022/05/30 03:11:26;;;;;;;10.63;6.82;;;10.80;99.90;;;;;;5068751;28;20737;-83
2022/05/30 03:13:51;;;;;;;9.57;6.15;;;10.70;99.90;;;;;;5066908;28;20904;-83
2022/05/30 03:16:17;;;;;;;11.73;6.57;;;10.70;99.90;;;;;;5067494;28;20374;-82
2022/05/30 03:18:43;;;;;;;12.13;6.10;;;10.60;99.90;;;;;;5067357;28;20381;-82
2022/05/30 03:21:10;;;;;;;12.13;6.40;;;10.70;99.90;;;;;;5067069;28;20398;-83
2022/05/30 03:23:36;;;;;;;10.48;6.00;;;10.70;99.90;;;;;;5068981;28;20469;-83
2022/05/30 03:26:02;;;;;;;11.90;6.25;;;10.70;99.90;;;;;;5105135;28;20416;-82
2022/05/30 03:28:28;;;;;;;9.57;5.87;;;10.70;99.90;;;;;;5070910;28;20381;-83
2022/05/30 03:30:53;;;;;;;7.67;4.50;;;10.70;99.90;;;;;;5070555;28;20402;-84
2022/05/30 03:33:19;;;;;;;12.52;5.78;;;10.80;99.90;;;;;;5072290;28;20381;-82
2022/05/30 03:35:45;;;;;;;13.97;8.20;;;10.80;99.90;;;;;;5072520;28;20405;-83
2022/05/30 03:38:10;;;;;;;14.33;8.37;;;10.80;99.90;;;;;;5104506;28;20378;-83
2022/05/30 03:40:39;;;;;;;13.52;8.07;;;10.90;99.90;;;;;;5104567;28;20422;-82
2022/05/30 03:43:09;;;;;;;12.18;8.40;;;11.00;99.90;;;;;;5070358;28;20393;-83
2022/05/30 03:45:39;;;;;;;14.02;8.85;;;11.00;99.90;;;;;;5072108;28;20868;-83
2022/05/30 03:48:06;;;;;;;13.68;6.90;;;11.00;99.90;;;;;;5072155;28;20370;-85
2022/05/30 03:50:32;;;;;;;10.98;6.10;;;11.10;99.90;;;;;;5071505;28;20381;-83
2022/05/30 03:53:05;;;;;;;11.00;5.45;;;11.10;99.90;;;;;;5070722;28;20735;-82
2022/05/30 03:55:34;;;;;;;15.70;5.50;;;11.10;99.90;;;;;;5070322;28;20470;-84
2022/05/30 03:58:02;;;;;;;11.18;4.70;;;11.10;99.90;;;;;;5071760;28;20401;-84
2022/05/30 04:00:28;;;;;;;11.32;4.60;;;11.10;99.90;;;;;;5103528;28;20430;-83
2022/05/30 04:02:54;;;;;;;10.77;4.80;;;11.10;99.90;;;;;;5071821;28;20932;-83
2022/05/30 04:05:21;;;;;;;12.40;5.00;;;11.20;99.90;;;;;;5072013;28;20376;-85
2022/05/30 04:07:47;;;;;;;10.00;5.28;;;11.30;99.90;;;;;;5070092;28;20374;-85
2022/05/30 04:10:13;;;;;;;8.00;4.93;;;11.30;99.90;;;;;;5071451;28;20445;-84
2022/05/30 04:12:39;;;;;;;12.68;5.70;;;11.40;99.90;;;;;;5071756;28;20378;-83
2022/05/30 04:15:06;;;;;;;10.80;4.70;;;11.30;99.90;;;;;;5071633;28;20448;-84
2022/05/30 04:17:34;;;;;;;10.98;4.97;;;11.40;99.90;;;;;;5070349;28;20370;-82
2022/05/30 04:20:00;;;;;;;13.63;4.95;;;11.40;99.90;;;;;;5070254;28;20852;-84
2022/05/30 04:22:26;;;;;;;9.35;4.70;;;11.40;99.90;;;;;;5069656;28;20489;-84
2022/05/30 04:24:52;;;;;;;11.25;4.65;;;11.40;99.90;;;;;;5071656;28;20382;-85
2022/05/30 04:27:18;;;;;;;11.25;5.10;;;11.40;99.90;;;;;;5070501;28;20957;-84
2022/05/30 04:29:44;;;;;;;13.13;4.93;;;11.50;99.90;;;;;;5071234;28;20397;-84
2022/05/30 04:32:10;;;;;;;9.90;4.57;;;11.60;99.90;;;;;;5071112;28;20852;-85
2022/05/30 04:34:36;;;;;;;9.82;4.22;;;11.70;99.90;;;;;;5071259;28;20945;-85
2022/05/30 04:37:03;;;;;;;10.25;4.70;;;11.70;99.90;;;;;;5104049;28;20390;-85
2022/05/30 04:39:29;;;;;;;12.97;4.93;;;11.80;99.90;;;;;;5104051;28;20462;-84
2022/05/30 04:41:54;;;;;;;10.87;4.97;;;11.80;99.90;;;;;;5069356;28;20888;-83
2022/05/30 04:44:20;;;;;;;11.38;5.10;;;11.80;99.90;;;;;;5069426;28;20397;-83
2022/05/30 04:46:56;;;;;;;10.03;4.80;;;11.90;99.90;;;;;;5070958;28;20846;-85
2022/05/30 04:49:24;;;;;;;10.68;5.03;;;11.90;99.90;;;;;;5069530;28;20791;-83
2022/05/30 04:51:50;;;;;;;12.93;4.88;;;11.90;99.90;;;;;;5071117;28;20377;-85
2022/05/30 04:54:17;;;;;;;11.57;4.85;;;11.90;99.90;;;;;;5069039;28;20930;-84
2022/05/30 04:56:43;;;;;;;10.43;4.55;;;12.10;99.90;;;;;;5069715;28;20374;-84
2022/05/30 04:59:09;;;;;;;9.68;4.70;;;12.10;99.90;;;;;;5070699;28;20374;-84
2022/05/30 05:01:36;;;;;;;10.20;4.57;;;12.20;99.90;;;;;;5070527;28;20488;-83
2022/05/30 05:04:04;;;;;;;10.73;4.20;;;12.30;99.90;;;;;;5070746;28;20872;-85
2022/05/30 05:06:30;;;;;;;11.10;4.72;;;12.40;99.90;;;;;;5071169;28;20443;-84
2022/05/30 05:09:16;;;;;;;13.65;4.47;;;12.40;99.90;;;;;;5070417;28;20953;-84
2022/05/30 05:11:44;;;;;;;12.18;4.68;;;12.40;99.90;;;;;;5068925;28;20385;-84
2022/05/30 05:14:09;;;;;;;10.73;4.28;;;12.40;99.90;;;;;;5068818;28;20961;-84
2022/05/30 05:16:36;;;;;;;11.43;4.65;;;12.40;99.90;;;;;;5068811;28;20390;-84
2022/05/30 05:19:02;;;;;;;15.85;4.63;;;12.40;99.90;;;;;;5072697;28;20442;-85
2022/05/30 05:21:36;;;;;;;10.53;4.70;;;12.40;99.90;;;;;;5071380;28;20414;-84
2022/05/30 05:24:04;;;;;;;12.90;5.10;;;12.30;99.90;;;;;;5056364;28;20389;-85
2022/05/30 05:26:30;;;;;;;13.38;5.07;;;12.30;99.90;;;;;;5071902;28;20371;-84
2022/05/30 05:28:57;;;;;;;12.80;5.72;;;12.20;99.90;;;;;;5069102;28;20903;-84
2022/05/30 05:31:34;;;;;;;13.15;5.32;;;12.50;99.90;;;;;;5070770;28;20386;-84
2022/05/30 05:34:03;;;;;;;15.00;6.03;;;12.50;99.90;;;;;;5069831;28;20386;-84
2022/05/30 05:36:32;;;;;;;14.18;5.43;;;12.50;99.90;;;;;;5070563;28;20389;-84
2022/05/30 05:38:59;;;;;;;11.83;5.20;;;12.60;99.90;;;;;;5070597;28;20410;-85
2022/05/30 05:41:24;;;;;;;14.27;5.97;;;12.60;99.90;;;;;;5072171;28;20410;-83
2022/05/30 05:43:54;;;;;;;14.63;5.70;;;12.70;99.90;;;;;;5069115;28;20903;-85
2022/05/30 05:46:23;;;;;;;11.85;4.95;;;12.50;99.90;;;;;;5072133;28;20874;-84
2022/05/30 05:48:51;;;;;;;13.18;5.80;;;12.40;99.90;;;;;;5052731;28;20386;-84
2022/05/30 05:51:18;;;;;;;18.35;6.43;;;12.40;99.90;;;;;;5071910;28;20387;-84
2022/05/30 05:53:44;;;;;;;15.32;6.35;;;12.50;99.90;;;;;;5071952;28;20374;-85
2022/05/30 05:56:15;;;;;;;12.85;6.28;;;12.40;99.90;;;;;;5070664;28;20924;-84
2022/05/30 05:58:40;;;;;;;13.18;6.18;;;12.40;99.90;;;;;;5070987;28;20393;-83
2022/05/30 06:01:08;;;;;;;14.97;6.73;;;12.50;99.90;;;;;;5103441;28;20413;-84
2022/05/30 06:03:34;;;;;;;13.90;6.65;;;12.50;99.90;;;;;;5071192;28;20424;-82
2022/05/30 06:06:00;;;;;;;13.30;6.45;;;12.40;99.90;;;;;;5105056;28;20398;-84
2022/05/30 06:08:25;;;;;;;13.60;6.43;;;12.50;99.90;;;;;;5070226;28;20937;-84
2022/05/30 06:11:08;;;;;;;17.08;7.00;;;12.70;99.90;;;;;;5068851;28;20378;-85
2022/05/30 06:13:35;;;;;;;14.50;6.95;;;12.80;99.90;;;;;;5069909;28;20390;-84
2022/05/30 06:16:04;;;;;;;14.48;6.55;;;12.80;99.90;;;;;;5069961;28;20406;-83
2022/05/30 06:18:30;;;;;;;14.98;6.45;;;12.70;99.90;;;;;;5070535;28;20378;-84
2022/05/30 06:20:59;;;;;;;14.57;6.57;;;12.60;99.90;;;;;;5068740;28;20734;-84
2022/05/30 06:23:25;;;;;;;15.05;6.63;;;12.50;99.90;;;;;;5068486;28;20382;-84
2022/05/30 06:25:51;;;;;;;13.70;5.72;;;12.50;99.90;;;;;;5069350;28;20501;-85
2022/05/30 06:28:16;;;;;;;15.50;6.27;;;12.50;99.90;;;;;;5071192;28;20854;-86
2022/05/30 06:30:42;;;;;;;15.35;6.20;;;12.50;99.90;;;;;;5068402;28;20373;-87
2022/05/30 06:33:07;;;;;;;12.73;5.60;;;12.30;99.90;;;;;;5068540;28;20500;-83
2022/05/30 06:35:33;;;;;;;13.35;5.35;;;12.30;99.90;;;;;;5069471;28;20381;-87
2022/05/30 06:37:58;;;;;;;13.50;5.77;;;12.50;99.90;;;;;;5068822;28;20378;-84
2022/05/30 06:40:25;;;;;;;13.75;5.60;;;12.50;99.90;;;;;;5069760;28;20864;-84
2022/05/30 06:42:50;;;;;;;12.43;5.35;;;12.70;99.90;;;;;;5069352;28;20398;-85
2022/05/30 06:45:16;;;;;;;12.80;5.28;;;12.90;99.90;;;;;;5068708;28;20413;-86
2022/05/30 06:47:42;;;;;;;15.33;5.53;;;13.20;99.90;;;;;;5066255;28;20468;-85
2022/05/30 06:50:13;;;;;;;9.90;5.00;;;13.30;99.90;;;;;;5064497;28;20386;-84
2022/05/30 06:52:39;;;;;;;12.70;5.50;;;13.40;99.90;;;;;;5069100;28;20800;-85
2022/05/30 06:55:05;;;;;;;13.87;5.40;;;13.40;99.90;;;;;;5069908;28;20413;-85
2022/05/30 07:00:16;;;;;;;12.38;4.78;;;13.40;99.90;;;;;;5076149;28;20505;-84
2022/05/30 07:02:42;;;;;;;13.40;4.78;;;13.40;99.90;;;;;;5075246;28;21594;-82
2022/05/30 07:05:08;;;;;;;10.88;4.25;;;13.30;99.90;;;;;;5074724;28;20432;-83
2022/05/30 07:07:34;;;;;;;11.60;4.60;;;13.40;99.90;;;;;;5075222;28;20366;-85
2022/05/30 07:10:00;;;;;;;9.10;4.27;;;13.40;99.90;;;;;;5073462;28;20378;-83
2022/05/30 07:12:25;;;;;;;12.07;4.43;;;13.40;99.90;;;;;;5074522;28;20740;-83
2022/05/30 07:14:51;;;;;;;12.63;4.70;;;13.30;99.90;;;;;;5073701;28;20401;-85
2022/05/30 07:17:17;;;;;;;15.17;7.73;;;13.20;99.90;;;;;;5074831;28;20389;-85
2022/05/30 07:19:42;;;;;;;13.10;7.75;;;13.20;99.90;;;;;;5071160;28;20497;-85
2022/05/30 07:22:10;;;;;;;10.48;5.13;;;12.90;99.90;;;;;;5072438;28;20832;-86
2022/05/30 07:24:38;;;;;;;10.27;4.75;;;12.90;99.90;;;;;;5073031;28;20424;-84
2022/05/30 07:27:08;;;;;;;10.13;4.53;;;13.00;99.90;;;;;;5072591;28;20426;-85
2022/05/30 07:29:34;;;;;;;10.10;4.45;;;13.10;99.90;;;;;;5067760;28;20562;-85
2022/05/30 07:32:04;;;;;;;9.80;4.45;;;13.30;99.90;;;;;;5070842;28;20476;-83
2022/05/30 07:34:30;;;;;;;9.02;3.95;;;13.50;99.90;;;;;;5070705;28;20378;-85
2022/05/30 07:36:58;;;;;;;11.30;4.72;;;13.70;99.90;;;;;;5073241;28;20405;-84
2022/05/30 07:39:24;;;;;;;9.98;4.55;;;13.70;99.90;;;;;;5071856;28;20377;-83
2022/05/30 07:41:49;;;;;;;10.65;4.90;;;13.80;99.90;;;;;;5072304;28;20405;-85
2022/05/30 07:44:15;;;;;;;11.40;5.37;;;13.70;99.90;;;;;;5071646;28;20398;-84
2022/05/30 07:46:43;;;;;;;9.02;4.43;;;13.80;99.90;;;;;;5072170;28;20840;-83
2022/05/30 07:49:10;;;;;;;8.65;4.35;;;13.70;99.90;;;;;;5071629;28;20393;-84
2022/05/30 07:51:35;;;;;;;9.02;4.10;;;13.60;99.90;;;;;;5071837;28;20382;-84
2022/05/30 07:54:01;;;;;;;10.75;4.20;;;13.80;99.90;;;;;;5055893;28;20380;-84
2022/05/30 07:56:27;;;;;;;7.27;3.60;;;14.10;99.90;;;;;;5072941;28;20796;-85
2022/05/30 07:58:52;;;;;;;6.18;3.20;;;14.30;99.90;;;;;;5073454;28;20472;-84
2022/05/30 08:01:20;;;;;;;10.80;3.70;;;14.50;99.90;;;;;;5070536;28;20405;-84
2022/05/30 08:03:47;;;;;;;7.65;3.92;;;14.90;99.90;;;;;;5072597;28;20374;-84
2022/05/30 08:06:19;;;;;;;7.03;5.38;;;15.30;99.90;;;;;;5072463;28;20796;-84
2022/05/30 08:08:45;;;;;;;8.77;3.60;;;15.70;99.90;;;;;;5072054;28;20385;-84
2022/05/30 08:11:11;;;;;;;8.68;3.22;;;15.90;99.90;;;;;;5072055;28;20431;-86
2022/05/30 08:13:37;;;;;;;7.95;3.28;;;16.10;99.90;;;;;;5071704;28;20391;-85
2022/05/30 08:16:04;;;;;;;7.38;3.78;;;16.30;99.90;;;;;;5071860;28;20373;-84
2022/05/30 08:18:30;;;;;;;10.05;5.80;;;16.40;99.90;;;;;;5071979;28;20443;-83
2022/05/30 08:20:56;;;;;;;13.02;5.63;;;16.30;99.90;;;;;;5072362;28;20438;-84
2022/05/30 08:23:23;;;;;;;5.78;2.95;;;15.90;99.90;;;;;;5071507;28;20432;-86
2022/05/30 08:25:50;;;;;;;7.57;3.50;;;15.70;99.90;;;;;;5071617;28;20424;-84
2022/05/30 08:28:16;;;;;;;5.55;2.45;;;15.40;99.90;;;;;;5070622;28;20389;-84
2022/05/30 08:30:42;;;;;;;9.07;5.27;;;15.50;99.90;;;;;;5071445;28;20374;-86
2022/05/30 08:33:17;;;;;;;13.20;8.00;;;15.80;99.90;;;;;;5071110;28;20482;-85
2022/05/30 08:35:45;;;;;;;5.10;2.35;;;16.60;99.90;;;;;;5072903;28;20382;-86
2022/05/30 08:38:12;;;;;;;8.03;2.50;;;17.00;99.90;;;;;;5072548;28;20386;-85
2022/05/30 08:43:31;;;;;;;8.90;5.10;;;17.90;99.90;;;;;;5072914;28;20497;-85
2022/05/30 08:46:08;;;;;;;15.93;9.73;;;18.10;99.90;;;;;;5072957;28;20408;-85
2022/05/30 08:48:42;;;;;;;5.22;2.17;;;17.80;99.90;;;;;;5070885;28;20390;-86
2022/05/30 08:51:14;;;;;;;5.47;2.05;;;17.90;99.90;;;;;;5072377;28;20378;-85
2022/05/30 08:54:00;;;;;;;8.65;3.97;;;18.40;99.90;;;;;;5072897;28;21058;-84
2022/05/30 08:56:40;;;;;;;8.00;3.83;;;18.40;99.90;;;;;;5072759;28;20374;-87
2022/05/30 08:59:20;;;;;;;6.07;2.60;;;17.80;99.90;;;;;;5071870;28;20382;-85
2022/05/30 09:01:56;;;;;;;6.82;2.40;;;17.30;99.90;;;;;;5070650;28;20753;-86
2022/05/30 09:04:34;;;;;;;6.20;2.35;;;16.90;99.90;;;;;;5070997;28;20426;-84
2022/05/30 09:07:08;;;;;;;7.03;2.80;;;16.80;99.90;;;;;;5070512;28;20386;-83
2022/05/30 09:10:02;;;;;;;4.32;2.00;;;17.10;99.90;;;;;;5074326;28;20439;-85
2022/05/30 09:12:47;;;;;;;3.58;1.77;;;17.10;99.90;;;;;;5071421;28;20390;-86
2022/05/30 09:15:28;;;;;;;5.15;1.67;;;17.50;99.90;;;;;;5070409;28;20414;-86
2022/05/30 09:18:20;;;;;;;3.42;1.55;;;17.40;99.90;;;;;;5072214;28;20467;-84
2022/05/30 09:20:47;;;;;;;3.70;1.60;;;17.10;99.90;;;;;;5061684;28;20379;-85
2022/05/30 09:23:18;;;;;;;4.03;1.70;;;17.50;99.90;;;;;;5054661;28;20382;-85
2022/05/30 09:25:56;;;;;;;3.33;1.73;;;17.90;99.90;;;;;;5071180;28;20428;-85
2022/05/30 09:28:25;;;;;;;4.30;1.70;;;18.20;99.90;;;;;;5070169;28;20386;-84
2022/05/30 09:31:10;;;;;;;3.70;1.70;;;18.20;99.90;;;;;;5073079;28;20394;-83
2022/05/30 09:33:39;;;;;;;4.03;1.60;;;18.30;99.90;;;;;;5072150;28;20461;-86
2022/05/30 09:36:24;;;;;;;4.15;1.98;;;18.20;99.90;;;;;;5072742;28;20383;-85
2022/05/30 09:38:59;;;;;;;4.03;1.58;;;18.20;99.90;;;;;;5054322;28;20382;-86
2022/05/30 09:41:46;;;;;;;4.10;1.67;;;18.50;99.90;;;;;;5057371;28;20458;-85
2022/05/30 09:44:22;;;;;;;2.88;1.77;;;18.40;99.90;;;;;;5071534;28;20460;-86
2022/05/30 09:47:09;;;;;;;3.03;1.50;;;18.20;99.90;;;;;;5071528;28;20412;-84
2022/05/30 09:49:40;;;;;;;2.40;1.50;;;18.30;99.90;;;;;;5072800;28;20764;-85
2022/05/30 09:52:29;;;;;;;5.22;1.88;;;;;;;;;;5072120;28;20400;-84
2022/05/30 09:54:55;;;;;;;4.47;1.80;;;;;;;;;;5055156;28;20414;-85
2022/05/30 09:57:28;;;;;;;3.60;1.60;;;;;;;;;;5073506;28;20374;-88
2022/05/30 09:59:56;;;;;;;4.75;1.92;;;;;;;;;;5067703;28;20380;-85
2022/05/30 10:02:27;;;;;;;7.50;1.85;;;;;;;;;;5067325;28;20412;-84
2022/05/30 10:05:08;;;;;;;4.18;1.60;;;;;;;;;;5064522;28;20424;-85
2022/05/30 10:07:35;;;;;;;5.33;1.97;;;;;;;;;;5069755;28;20392;-83
2022/05/30 10:10:03;;;;;;;4.25;1.83;;;;;;;;;;5071138;28;20408;-86
2022/05/30 10:12:35;;;;;;;6.82;1.75;;;;;;;;;;5072478;28;20427;-84
2022/05/30 10:15:01;;;;;;;5.00;1.80;;;;;;;;;;5070878;28;20388;-84
2022/05/30 10:17:33;;;;;;;3.85;1.80;;;;;;;;;;5073397;28;20374;-84
2022/05/30 10:20:00;;;;;;;4.65;1.90;;;;;;;;;;5071501;28;20439;-85
2022/05/30 10:28:46;;;;;;;4.97;1.73;;;;;;;;;;5071657;28;20384;-85
2022/05/30 10:31:19;;;;;;;6.20;1.98;;;;;;;;;;5069852;28;20914;-84
2022/05/30 10:33:48;;;;;;;5.47;1.77;;;;;;;;;;5070781;28;20386;-84
2022/05/30 10:36:14;;;;;;;4.13;1.67;;;;;;;;;;5068950;28;20888;-85
2022/05/30 10:38:58;;;;;;;4.78;1.90;;;;;;;;;;5068697;28;20444;-84
2022/05/30 10:41:51;;;;;;;4.03;1.58;;;18.90;99.20;;;;;;5069264;28;20526;-84
2022/05/30 10:44:29;;;;;;;5.15;1.88;;;18.80;98.10;;;;;;5067802;28;20438;-86
2022/05/30 10:47:17;;;;;;;5.10;1.73;;;18.70;98.80;;;;;;5070977;28;20457;-88
2022/05/30 10:49:51;;;;;;;5.18;1.50;;;18.50;97.20;;;;;;5069371;28;20378;-85
2022/05/30 10:52:35;;;;;;;4.93;1.80;;;18.30;98.40;;;;;;5071454;28;20718;-84
2022/05/30 10:55:25;;;;;;;5.03;1.80;;;18.00;98.70;;;;;;5069990;28;20386;-87
2022/05/30 10:58:18;;;;;;;4.80;1.80;;;17.40;99.10;;;;;;5073385;28;20445;-83
2022/05/30 11:00:50;;;;;;;4.35;2.00;;;17.00;99.90;;;;;;5070605;28;20382;-83
2022/05/30 11:03:53;;;;;;;4.15;1.63;;;17.10;99.90;;;;;;5072171;28;20468;-85
2022/05/30 11:06:32;;;;;;;5.22;1.88;;;17.20;99.90;;;;;;5019711;28;20401;-85
2022/05/30 11:09:33;;;;;;;3.47;1.67;;;17.40;99.90;;;;;;5056327;28;20752;-85
2022/05/30 11:12:26;;;;;;;4.50;1.83;;;17.60;99.90;;;;;;5074184;28;20885;-83
2022/05/30 11:15:30;;;;;;;6.47;2.33;;;17.70;99.30;;;;;;5070917;28;20390;-83
2022/05/30 11:18:42;;;;;;;5.40;2.05;;;17.90;98.00;;;;;;5073860;28;20425;-85
2022/05/30 11:21:26;;;;;;;6.57;1.95;;;17.90;99.60;;;;;;5072135;28;20416;-81
2022/05/30 11:23:53;;;;;;;5.88;2.15;;;18.30;99.90;;;;;;5071240;28;20895;-84
2022/05/30 11:26:34;;;;;;;6.20;1.80;;;18.50;99.30;;;;;;5070245;28;20386;-84
2022/05/30 11:29:25;;;;;;;5.28;1.88;;;18.60;98.50;;;;;;5062718;28;20948;-87
2022/05/30 11:32:26;;;;;;;4.03;1.67;;;18.50;97.80;;;;;;5071419;28;20400;-86
2022/05/30 11:35:19;;;;;;;5.07;2.08;;;18.00;97.40;;;;;;5071616;28;20397;-83
2022/05/30 11:38:04;;;;;;;6.07;1.83;;;17.90;99.00;;;;;;5051853;28;20434;-84
2022/05/30 11:40:43;;;;;;;7.57;2.40;;;17.90;99.60;;;;;;5050405;28;20395;-85
2022/05/30 11:43:26;;;;;;;3.53;1.63;;;17.90;98.00;;;;;;5057845;28;20428;-83
2022/05/30 11:45:57;;;;;;;6.80;2.05;;;17.60;98.30;;;;;;5072259;28;20399;-84
2022/05/30 11:49:10;;;;;;;6.90;1.95;;;17.30;98.60;;;;;;5063278;28;20393;-86
2022/05/30 11:51:54;;;;;;;5.75;1.90;;;17.40;99.90;;;;;;5003677;28;20421;-84
2022/05/30 11:54:26;;;;;;;4.20;1.73;;;17.90;99.90;;;;;;5074964;28;20413;-87
2022/05/30 11:57:34;;;;;;;2.75;1.38;;;18.40;99.20;;;;;;5070411;28;20390;-85
2022/05/30 12:00:07;;;;;;;5.47;1.40;;;18.70;96.30;;;;;;5057113;28;20451;-84
2022/05/30 12:02:41;;;;;;;7.03;1.70;;;18.60;97.50;;;;;;5072561;28;20471;-84
2022/05/30 12:05:08;;;;;;;4.90;1.60;;;18.70;97.60;;;;;;5071313;28;20714;-85
2022/05/30 12:07:42;;;;;;;5.28;1.70;;;18.90;97.20;;;;;;5074011;28;20398;-85
2022/05/30 12:10:43;;;;;;;4.80;1.80;;;19.00;96.80;;;;;;5073193;28;20462;-83
2022/05/30 12:13:33;;;;;;;4.57;1.60;;;19.10;96.70;;;;;;5074019;28;20378;-84
2022/05/30 12:16:25;;;;;;;5.70;1.83;;;19.30;96.70;;;;;;5075042;28;20863;-86
2022/05/30 12:24:37;;;;;;;4.32;1.67;;;18.80;96.40;;;;;;5074798;28;20400;-85
2022/05/30 12:27:05;;;;;;;3.92;1.73;;;18.80;96.90;;;;;;5075568;28;20382;-84
2022/05/30 12:29:37;;;;;;;2.90;1.58;;;18.80;96.60;;;;;;5076235;28;20473;-83
2022/05/30 12:32:32;;;;;;;4.20;1.50;;;18.90;96.20;;;;;;5075482;28;20385;-86
2022/05/30 12:35:01;;;;;;;3.92;1.33;;;19.00;96.10;;;;;;5065024;28;20911;-84
2022/05/30 12:37:44;;;;;;;3.17;1.43;;;19.10;95.90;;;;;;5072900;28;20424;-87
2022/05/30 12:40:33;;;;;;;3.15;1.38;;;19.00;95.30;;;;;;5067695;28;20475;-84
2022/05/30 12:43:06;;;;;;;4.50;1.63;;;19.20;94.80;;;;;;5039584;28;20438;-83
2022/05/30 12:45:57;;;;;;;3.10;1.13;;;19.10;95.60;;;;;;5058438;28;20390;-85
2022/05/30 12:48:44;;;;;;;3.78;1.65;;;19.20;95.40;;;;;;5072932;28;20410;-84
2022/05/30 12:51:23;;;;;;;3.50;1.20;;;19.20;94.30;;;;;;5070408;28;20398;-84
2022/05/30 12:53:54;;;;;;;3.42;1.45;;;19.10;94.80;;;;;;5066195;28;20946;-84
2022/05/30 12:56:43;;;;;;;3.90;1.80;;;19.10;94.70;;;;;;5069375;28;20425;-85
2022/05/30 12:59:10;;;;;;;5.03;1.70;;;18.90;94.30;;;;;;5070469;28;20467;-84
2022/05/30 13:01:42;;;;;;;3.03;1.57;;;18.80;96.50;;;;;;5070669;28;20406;-85
2022/05/30 13:04:29;;;;;;;4.72;1.60;;;18.90;95.90;;;;;;5070590;28;20412;-86
2022/05/30 13:06:58;;;;;;;3.50;1.33;;;19.00;95.80;;;;;;5068979;28;20401;-85
2022/05/30 13:09:30;;;;;;;5.88;1.50;;;18.90;94.90;;;;;;5068536;28;20424;-84
2022/05/30 13:11:55;;;;;;;3.90;1.33;;;18.90;95.60;;;;;;5069835;28;20478;-84
2022/05/30 13:14:39;;;;;;;3.03;1.15;;;18.90;94.80;;;;;;5072059;28;20382;-85
2022/05/30 13:17:23;;;;;;;3.17;1.10;;;18.60;93.10;;;;;;5071472;28;20378;-84
2022/05/30 13:19:55;;;;;;;6.60;1.58;;;18.30;94.70;;;;;;5069612;28;20500;-85
2022/05/30 13:22:48;;;;;;;3.42;1.40;;;18.20;96.40;;;;;;5072395;28;20409;-84
2022/05/30 13:25:37;;;;;;;4.30;1.40;;;18.00;95.60;;;;;;5071617;28;20370;-84
2022/05/30 13:28:07;;;;;;;4.40;1.50;;;18.00;96.60;;;;;;5071153;28;20410;-84
2022/05/30 13:30:35;;;;;;;3.65;1.20;;;17.90;96.70;;;;;;5071615;28;20390;-85
2022/05/30 13:33:10;;;;;;;3.33;1.48;;;17.90;96.40;;;;;;5070644;28;20735;-85